createdAt,value
2022-11-29T00:01:31.157Z,57.29
2022-11-29T00:03:58.964Z,57.57
2022-11-29T00:06:29.377Z,57.28
2022-11-29T00:08:59.135Z,56.88
2022-11-29T00:11:29.453Z,56.58
2022-11-29T00:13:56.521Z,57.34
2022-11-29T00:16:23.456Z,57.45
2022-11-29T00:18:50.347Z,56.50
2022-11-29T00:21:17.205Z,57.62
2022-11-29T00:23:44.203Z,57.21
2022-11-29T00:26:11.022Z,57.74
2022-11-29T00:28:37.951Z,56.75
2022-11-29T00:31:16.896Z,57.64
2022-11-29T00:33:43.930Z,57.73
2022-11-29T00:36:11.556Z,57.85
2022-11-29T00:38:38.868Z,57.84
2022-11-29T00:41:06.739Z,57.52
2022-11-29T00:43:33.762Z,57.76
2022-11-29T00:46:01.556Z,57.22
2022-11-29T00:48:28.486Z,57.67
2022-11-29T00:50:55.382Z,57.03
2022-11-29T00:53:22.489Z,57.27
2022-11-29T00:55:50.694Z,56.78
2022-11-29T00:58:18.301Z,57.13
2022-11-29T01:00:45.426Z,56.94
2022-11-29T01:03:12.378Z,57.43
2022-11-29T01:05:39.330Z,57.01
2022-11-29T01:08:06.296Z,56.75
2022-11-29T01:10:33.742Z,56.67
2022-11-29T01:13:00.771Z,56.85
2022-11-29T01:15:28.465Z,55.97
2022-11-29T01:17:55.555Z,56.41
2022-11-29T01:20:22.350Z,56.70
2022-11-29T01:22:49.467Z,56.56
2022-11-29T01:25:16.682Z,56.33
2022-11-29T01:27:43.565Z,56.56
2022-11-29T01:30:11.604Z,56.14
2022-11-29T01:32:39.142Z,57.25
2022-11-29T01:35:06.873Z,57.33
2022-11-29T01:37:33.830Z,56.44
2022-11-29T01:40:00.660Z,56.77
2022-11-29T01:42:27.680Z,57.15
2022-11-29T01:45:07.282Z,56.77
2022-11-29T01:47:39.087Z,56.84
2022-11-29T01:50:08.181Z,57.49
2022-11-29T01:52:35.445Z,58.53
2022-11-29T01:55:05.711Z,57.88
2022-11-29T01:57:35.319Z,57.75
2022-11-29T02:00:07.374Z,57.80
2022-11-29T02:02:44.472Z,57.83
2022-11-29T02:05:14.828Z,56.68
2022-11-29T02:07:45.960Z,56.98
2022-11-29T02:10:14.295Z,56.89
2022-11-29T02:12:56.232Z,57.44
2022-11-29T02:16:09.829Z,56.63
2022-11-29T02:19:18.650Z,56.25
2022-11-29T02:22:03.065Z,56.37
2022-11-29T02:25:17.303Z,56.95
2022-11-29T02:27:46.982Z,56.27
2022-11-29T02:30:53.739Z,56.71
2022-11-29T02:33:33.964Z,56.40
2022-11-29T02:36:32.280Z,57.25
2022-11-29T02:39:20.216Z,57.08
2022-11-29T02:42:20.602Z,56.95
2022-11-29T02:45:06.258Z,56.80
2022-11-29T02:47:54.668Z,56.86
2022-11-29T02:50:49.652Z,57.92
2022-11-29T02:53:38.117Z,57.00
2022-11-29T02:56:11.345Z,56.85
2022-11-29T02:58:51.601Z,56.37
2022-11-29T03:01:30.342Z,57.04
2022-11-29T03:04:15.861Z,56.93
2022-11-29T03:06:53.419Z,57.46
2022-11-29T03:09:32.352Z,57.48
2022-11-29T03:12:26.788Z,57.49
2022-11-29T03:15:13.042Z,57.17
2022-11-29T03:17:45.931Z,56.67
2022-11-29T03:20:50.328Z,56.62
2022-11-29T03:23:35.698Z,57.64
2022-11-29T03:26:07.622Z,57.24
2022-11-29T03:29:03.089Z,56.97
2022-11-29T03:32:00.346Z,57.56
2022-11-29T03:34:36.562Z,57.05
2022-11-29T03:37:13.526Z,56.74
2022-11-29T03:39:49.589Z,56.67
2022-11-29T03:42:32.956Z,56.83
2022-11-29T03:45:06.802Z,57.34
2022-11-29T03:48:00.143Z,57.39
2022-11-29T03:50:35.152Z,57.15
2022-11-29T03:53:34.193Z,57.08
2022-11-29T03:56:03.273Z,56.79
2022-11-29T03:59:00.393Z,56.55
2022-11-29T04:02:04.626Z,57.14
2022-11-29T04:04:40.492Z,56.02
2022-11-29T04:07:20.005Z,56.03
2022-11-29T04:10:28.056Z,56.65
2022-11-29T04:13:04.037Z,56.56
2022-11-29T04:15:53.254Z,56.48
2022-11-29T04:18:57.251Z,56.95
2022-11-29T04:21:47.282Z,56.92
2022-11-29T04:24:36.305Z,57.13
2022-11-29T04:27:29.082Z,56.62
2022-11-29T04:30:11.169Z,56.18
2022-11-29T04:33:33.551Z,56.99
2022-11-29T04:36:50.543Z,56.58
2022-11-29T04:40:09.354Z,56.56
2022-11-29T04:43:03.960Z,56.27
2022-11-29T04:45:36.825Z,56.49
2022-11-29T04:48:25.066Z,56.48
2022-11-29T04:51:10.617Z,56.50
2022-11-29T04:54:08.730Z,56.25
2022-11-29T04:56:52.839Z,57.61
2022-11-29T04:59:54.893Z,57.40
2022-11-29T05:02:33.510Z,56.99
2022-11-29T05:05:38.021Z,57.00
2022-11-29T05:08:32.834Z,56.52
2022-11-29T05:11:26.518Z,57.24
2022-11-29T05:14:32.883Z,56.61
2022-11-29T05:17:47.104Z,57.41
2022-11-29T05:20:35.520Z,56.88
2022-11-29T05:23:21.320Z,56.33
2022-11-29T05:25:51.330Z,56.24
2022-11-29T05:28:32.399Z,56.86
2022-11-29T05:31:29.746Z,57.01
2022-11-29T05:34:21.683Z,56.68
2022-11-29T05:36:51.701Z,56.71
2022-11-29T05:39:29.742Z,56.89
2022-11-29T05:42:08.726Z,55.79
2022-11-29T05:44:47.895Z,56.68
2022-11-29T05:47:35.316Z,56.25
2022-11-29T05:50:28.485Z,57.19
2022-11-29T05:53:21.209Z,56.36
2022-11-29T05:56:07.859Z,55.92
2022-11-29T05:58:43.575Z,55.76
2022-11-29T06:01:24.804Z,56.39
2022-11-29T06:04:17.871Z,56.26
2022-11-29T06:07:04.274Z,56.31
2022-11-29T06:09:43.384Z,56.53
2022-11-29T06:12:20.763Z,56.05
2022-11-29T06:14:53.396Z,56.23
2022-11-29T06:17:41.893Z,55.67
2022-11-29T06:20:43.636Z,56.52
2022-11-29T06:23:31.498Z,56.26
2022-11-29T06:26:36.892Z,56.12
2022-11-29T06:29:27.915Z,55.82
2022-11-29T06:32:31.031Z,55.11
2022-11-29T06:35:11.732Z,55.23
2022-11-29T06:37:51.827Z,55.03
2022-11-29T06:40:18.892Z,54.73
2022-11-29T06:42:45.719Z,55.14
2022-11-29T06:45:14.445Z,53.96
2022-11-29T06:47:50.434Z,54.77
2022-11-29T06:50:56.218Z,54.49
2022-11-29T06:53:55.883Z,53.94
2022-11-29T06:56:40.924Z,53.67
2022-11-29T06:59:32.803Z,53.85
2022-11-29T07:02:52.316Z,53.82
2022-11-29T07:05:31.031Z,53.73
2022-11-29T07:08:03.232Z,53.82
2022-11-29T07:10:33.446Z,53.26
2022-11-29T07:13:00.623Z,53.38
2022-11-29T07:15:27.876Z,54.04
2022-11-29T07:18:18.019Z,53.04
2022-11-29T07:21:07.782Z,52.85
2022-11-29T07:23:49.952Z,52.14
2022-11-29T07:26:43.264Z,52.29
2022-11-29T07:29:51.160Z,52.24
2022-11-29T07:32:39.077Z,51.53
2022-11-29T07:35:33.821Z,52.10
2022-11-29T07:38:25.334Z,52.02
2022-11-29T07:41:06.096Z,51.52
2022-11-29T07:43:55.063Z,51.66
2022-11-29T07:46:22.091Z,49.99
2022-11-29T07:48:49.008Z,50.09
2022-11-29T07:51:16.016Z,51.15
2022-11-29T07:53:44.225Z,51.77
2022-11-29T07:56:11.587Z,50.05
2022-11-29T07:58:39.034Z,50.45
2022-11-29T08:01:06.451Z,50.05
2022-11-29T08:03:33.403Z,50.27
2022-11-29T08:06:00.369Z,49.38
2022-11-29T08:08:27.394Z,48.65
2022-11-29T08:10:54.368Z,48.84
2022-11-29T08:13:21.812Z,48.60
2022-11-29T08:15:49.365Z,48.83
2022-11-29T08:18:16.648Z,48.69
2022-11-29T08:20:43.767Z,48.25
2022-11-29T08:23:14.038Z,48.74
2022-11-29T08:25:41.524Z,48.72
2022-11-29T08:28:09.053Z,48.84
2022-11-29T08:30:35.993Z,49.41
2022-11-29T08:33:03.421Z,48.08
2022-11-29T08:35:30.706Z,48.17
2022-11-29T08:37:57.552Z,48.07
2022-11-29T08:40:24.820Z,48.21
2022-11-29T08:42:51.675Z,47.44
2022-11-29T08:45:18.689Z,47.40
2022-11-29T08:47:45.531Z,46.20
2022-11-29T08:50:17.940Z,47.35
2022-11-29T08:52:47.378Z,46.98
2022-11-29T08:55:14.295Z,46.34
2022-11-29T08:57:41.510Z,46.19
2022-11-29T09:00:09.299Z,46.23
2022-11-29T09:02:37.246Z,46.82
2022-11-29T09:05:05.971Z,46.45
2022-11-29T09:07:32.994Z,46.31
2022-11-29T09:09:59.885Z,46.39
2022-11-29T09:12:26.896Z,46.52
2022-11-29T09:14:53.927Z,45.98
2022-11-29T09:17:20.772Z,45.89
2022-11-29T09:19:47.604Z,46.49
2022-11-29T09:22:14.542Z,46.20
2022-11-29T09:24:41.426Z,46.46
2022-11-29T09:27:08.327Z,46.61
2022-11-29T09:29:35.256Z,45.87
2022-11-29T09:32:02.220Z,46.20
2022-11-29T09:34:29.127Z,45.38
2022-11-29T09:36:56.269Z,45.59
2022-11-29T09:39:24.234Z,45.03
2022-11-29T09:42:31.365Z,44.41
2022-11-29T09:45:17.267Z,44.98
2022-11-29T09:48:23.762Z,44.72
2022-11-29T09:51:09.769Z,45.48
2022-11-29T09:53:46.830Z,45.26
2022-11-29T09:56:23.884Z,45.67
2022-11-29T09:58:59.000Z,45.48
2022-11-29T10:01:30.044Z,46.97
2022-11-29T10:04:02.817Z,47.89
2022-11-29T10:06:36.441Z,47.47
2022-11-29T10:09:09.194Z,46.84
2022-11-29T10:12:03.282Z,46.92
2022-11-29T10:15:02.844Z,47.33
2022-11-29T10:17:48.694Z,46.79
2022-11-29T10:20:20.485Z,46.39
2022-11-29T10:22:59.376Z,47.24
2022-11-29T10:25:34.694Z,47.29
2022-11-29T10:28:03.569Z,47.15
2022-11-29T10:30:35.377Z,46.47
2022-11-29T10:33:02.429Z,47.09
2022-11-29T10:35:29.290Z,47.96
2022-11-29T10:38:29.686Z,48.42
2022-11-29T10:40:51.175Z,47.29
2022-11-29T10:43:18.155Z,47.04
2022-11-29T10:45:54.977Z,47.49
2022-11-29T10:48:33.198Z,47.29
2022-11-29T10:51:01.643Z,47.75
2022-11-29T10:53:36.031Z,47.97
2022-11-29T10:56:27.755Z,47.52
2022-11-29T10:58:57.800Z,47.78
2022-11-29T11:01:25.684Z,46.67
2022-11-29T11:03:55.500Z,48.19
2022-11-29T11:06:55.929Z,47.58
2022-11-29T11:09:31.041Z,46.68
2022-11-29T11:12:00.442Z,47.72
2022-11-29T11:14:31.167Z,47.85
2022-11-29T11:17:28.595Z,47.21
2022-11-29T11:20:21.863Z,47.26
2022-11-29T11:23:04.264Z,48.33
2022-11-29T11:25:38.721Z,48.36
2022-11-29T11:28:23.011Z,48.11
2022-11-29T11:30:57.328Z,48.01
2022-11-29T11:33:30.457Z,47.24
2022-11-29T11:36:26.951Z,47.44
2022-11-29T11:39:10.814Z,46.82
2022-11-29T11:41:45.210Z,46.61
2022-11-29T11:44:48.106Z,47.05
2022-11-29T11:47:22.047Z,47.18
2022-11-29T11:50:04.270Z,47.50
2022-11-29T11:52:40.132Z,47.43
2022-11-29T11:55:34.311Z,48.19
2022-11-29T11:58:09.388Z,48.88
2022-11-29T12:01:07.879Z,49.57
2022-11-29T12:03:50.140Z,49.15
2022-11-29T12:06:42.024Z,48.71
2022-11-29T12:09:08.859Z,49.09
2022-11-29T12:11:51.935Z,49.69
2022-11-29T12:14:29.130Z,48.88
2022-11-29T12:17:15.432Z,50.20
2022-11-29T12:20:08.796Z,51.15
2022-11-29T12:22:50.931Z,50.71
2022-11-29T12:25:27.166Z,51.26
2022-11-29T12:27:54.276Z,52.12
2022-11-29T12:30:21.286Z,51.32
2022-11-29T12:32:57.124Z,51.65
2022-11-29T12:35:31.600Z,52.82
2022-11-29T12:38:06.942Z,53.23
2022-11-29T12:41:11.682Z,53.11
2022-11-29T12:44:10.750Z,53.32
2022-11-29T12:46:37.884Z,53.75
2022-11-29T12:49:23.396Z,53.71
2022-11-29T12:52:09.299Z,54.12
2022-11-29T12:54:48.236Z,54.96
2022-11-29T12:57:23.701Z,55.31
2022-11-29T13:00:03.661Z,56.08
2022-11-29T13:02:42.374Z,55.90
2022-11-29T13:05:15.356Z,55.69
2022-11-29T13:08:11.199Z,56.35
2022-11-29T13:11:05.275Z,56.66
2022-11-29T13:13:38.817Z,56.18
2022-11-29T13:16:20.516Z,57.47
2022-11-29T13:19:13.704Z,57.46
2022-11-29T13:21:53.244Z,57.10
2022-11-29T13:24:31.597Z,57.79
2022-11-29T13:27:01.855Z,57.17
2022-11-29T13:29:29.255Z,58.36
2022-11-29T13:31:57.306Z,57.66
2022-11-29T13:34:24.142Z,58.67
2022-11-29T13:37:15.940Z,58.13
2022-11-29T13:39:52.401Z,58.02
2022-11-29T13:42:58.044Z,57.95
2022-11-29T13:46:05.928Z,57.57
2022-11-29T13:48:58.796Z,57.76
2022-11-29T13:51:33.070Z,57.80
2022-11-29T13:54:24.396Z,59.29
2022-11-29T13:57:05.434Z,59.52
2022-11-29T13:59:35.112Z,59.21
2022-11-29T14:02:03.889Z,59.46
2022-11-29T14:04:38.584Z,59.34
2022-11-29T14:07:09.931Z,60.75
2022-11-29T14:09:50.941Z,60.21
2022-11-29T14:12:22.173Z,61.24
2022-11-29T14:14:54.009Z,61.57
2022-11-29T14:17:45.833Z,61.95
2022-11-29T14:20:24.807Z,61.20
2022-11-29T14:23:04.260Z,61.39
2022-11-29T14:25:53.311Z,62.17
2022-11-29T14:28:23.598Z,61.05
2022-11-29T14:31:01.844Z,62.22
2022-11-29T14:33:38.268Z,61.81
2022-11-29T14:36:25.683Z,61.92
2022-11-29T14:39:22.522Z,61.38
2022-11-29T14:41:55.423Z,61.89
2022-11-29T14:44:26.466Z,62.46
2022-11-29T14:47:06.869Z,61.57
2022-11-29T14:49:43.373Z,62.29
2022-11-29T14:52:17.167Z,61.36
2022-11-29T14:55:04.995Z,60.96
2022-11-29T14:58:01.142Z,62.15
2022-11-29T15:00:47.788Z,62.56
2022-11-29T15:03:40.997Z,62.78
2022-11-29T15:06:25.278Z,62.67
2022-11-29T15:09:22.736Z,62.60
2022-11-29T15:12:21.741Z,61.47
2022-11-29T15:14:51.735Z,61.58
2022-11-29T15:17:24.631Z,62.48
2022-11-29T15:20:19.493Z,61.67
2022-11-29T15:22:51.494Z,63.26
2022-11-29T15:25:24.499Z,62.56
2022-11-29T15:27:53.563Z,62.70
2022-11-29T15:30:41.634Z,62.43
2022-11-29T15:33:29.349Z,61.92
2022-11-29T15:36:04.557Z,61.02
2022-11-29T15:38:42.341Z,61.74
2022-11-29T15:41:26.408Z,62.27
2022-11-29T15:43:57.215Z,61.86
2022-11-29T15:46:26.535Z,62.06
2022-11-29T15:48:53.958Z,61.69
2022-11-29T15:51:30.244Z,61.73
2022-11-29T15:54:12.237Z,61.17
2022-11-29T15:56:49.199Z,62.21
2022-11-29T15:59:39.428Z,62.52
2022-11-29T16:02:28.337Z,62.01
2022-11-29T16:04:59.901Z,61.85
2022-11-29T16:07:29.259Z,61.58
2022-11-29T16:10:04.750Z,61.97
2022-11-29T16:12:32.528Z,60.87
2022-11-29T16:15:01.030Z,61.11
2022-11-29T16:17:34.054Z,61.77
2022-11-29T16:20:22.313Z,61.66
2022-11-29T16:23:03.268Z,61.82
2022-11-29T16:25:36.138Z,62.26
2022-11-29T16:28:05.342Z,62.39
2022-11-29T16:30:32.767Z,62.19
2022-11-29T16:33:01.423Z,62.25
2022-11-29T16:35:31.012Z,61.74
2022-11-29T16:37:58.013Z,61.75
2022-11-29T16:40:29.220Z,62.07
2022-11-29T16:43:22.393Z,61.98
2022-11-29T16:46:35.134Z,62.88
2022-11-29T16:49:23.993Z,62.44
2022-11-29T16:51:52.366Z,62.11
2022-11-29T16:54:27.837Z,62.08
2022-11-29T16:56:56.901Z,62.50
2022-11-29T16:59:28.301Z,61.86
2022-11-29T17:01:57.102Z,62.89
2022-11-29T17:04:25.213Z,61.89
2022-11-29T17:06:54.302Z,63.11
2022-11-29T17:09:30.796Z,62.18
2022-11-29T17:11:59.599Z,62.36
2022-11-29T17:14:26.716Z,62.50
2022-11-29T17:16:54.684Z,62.67
2022-11-29T17:19:25.354Z,62.38
2022-11-29T17:21:52.672Z,63.59
2022-11-29T17:24:22.141Z,62.31
2022-11-29T17:26:50.528Z,61.88
2022-11-29T17:29:18.884Z,61.45
2022-11-29T17:31:47.530Z,61.34
2022-11-29T17:34:14.586Z,61.90
2022-11-29T17:36:41.622Z,61.87
2022-11-29T17:39:08.737Z,62.05
2022-11-29T17:41:35.904Z,61.91
2022-11-29T17:44:04.184Z,61.03
2022-11-29T17:46:33.666Z,61.94
2022-11-29T17:49:02.288Z,61.33
2022-11-29T17:54:17.159Z,61.65
2022-11-29T17:56:43.993Z,61.86
2022-11-29T17:59:11.009Z,62.09
2022-11-29T18:01:37.996Z,62.08
2022-11-29T18:04:06.459Z,62.65
2022-11-29T18:06:40.354Z,62.80
2022-11-29T18:09:09.342Z,61.72
2022-11-29T18:11:47.394Z,62.68
2022-11-29T18:14:18.728Z,61.55
2022-11-29T18:16:45.855Z,60.74
2022-11-29T18:19:21.373Z,60.49
2022-11-29T18:21:49.624Z,60.33
2022-11-29T18:24:16.947Z,60.60
2022-11-29T18:26:44.364Z,60.79
2022-11-29T18:29:11.774Z,60.77
2022-11-29T18:31:41.736Z,61.42
2022-11-29T18:34:10.264Z,61.13
2022-11-29T18:36:40.607Z,61.69
2022-11-29T18:39:09.950Z,61.79
2022-11-29T18:41:37.971Z,61.90
2022-11-29T18:44:11.197Z,61.60
2022-11-29T18:46:39.654Z,61.61
2022-11-29T18:49:08.440Z,61.63
2022-11-29T18:51:36.739Z,61.86
2022-11-29T18:54:04.865Z,61.99
2022-11-29T18:56:34.926Z,62.01
2022-11-29T18:59:10.586Z,61.89
2022-11-29T19:01:39.629Z,61.36
2022-11-29T19:04:07.780Z,61.41
2022-11-29T19:06:39.741Z,61.76
2022-11-29T19:09:15.133Z,61.67
2022-11-29T19:11:42.461Z,62.02
2022-11-29T19:14:11.970Z,62.08
2022-11-29T19:16:44.281Z,62.17
2022-11-29T19:19:11.984Z,61.77
2022-11-29T19:21:39.825Z,62.78
2022-11-29T19:24:08.793Z,62.65
2022-11-29T19:26:35.725Z,62.21
2022-11-29T19:29:02.861Z,61.67
2022-11-29T19:31:29.764Z,60.56
2022-11-29T19:33:57.684Z,60.98
2022-11-29T19:36:27.502Z,61.63
2022-11-29T19:38:55.159Z,61.97
2022-11-29T19:41:31.560Z,61.82
2022-11-29T19:44:00.894Z,61.16
2022-11-29T19:46:42.869Z,61.18
2022-11-29T19:49:10.970Z,61.04
2022-11-29T19:51:38.485Z,61.68
2022-11-29T19:54:08.031Z,61.52
2022-11-29T19:56:34.886Z,61.39
2022-11-29T19:59:02.017Z,61.02
2022-11-29T20:01:39.231Z,61.24
2022-11-29T20:04:07.664Z,60.81
2022-11-29T20:06:35.186Z,60.71
2022-11-29T20:09:02.115Z,60.46
2022-11-29T20:11:29.008Z,60.83
2022-11-29T20:13:58.590Z,60.92
2022-11-29T20:16:26.794Z,60.87
2022-11-29T20:18:54.072Z,61.08
2022-11-29T20:21:25.663Z,60.46
2022-11-29T20:24:00.587Z,60.91
2022-11-29T20:26:29.411Z,60.05
2022-11-29T20:28:57.267Z,60.14
2022-11-29T20:31:24.520Z,59.90
2022-11-29T20:33:53.355Z,59.45
2022-11-29T20:36:47.510Z,60.61
2022-11-29T20:39:36.105Z,60.80
2022-11-29T20:42:38.614Z,60.68
2022-11-29T20:45:08.116Z,60.60
2022-11-29T20:47:45.245Z,61.01
2022-11-29T20:50:24.209Z,61.07
2022-11-29T20:53:35.656Z,60.61
2022-11-29T20:56:03.589Z,60.61
2022-11-29T20:58:30.510Z,60.29
2022-11-29T21:00:58.542Z,60.81
2022-11-29T21:03:26.807Z,60.86
2022-11-29T21:05:55.793Z,60.77
2022-11-29T21:08:25.670Z,60.34
2022-11-29T21:10:53.342Z,59.79
2022-11-29T21:13:22.559Z,60.27
2022-11-29T21:15:49.997Z,59.86
2022-11-29T21:18:27.994Z,59.96
2022-11-29T21:21:23.916Z,59.84
2022-11-29T21:24:18.565Z,59.30
2022-11-29T21:26:51.215Z,59.02
2022-11-29T21:29:21.243Z,59.19
2022-11-29T21:31:51.275Z,60.30
2022-11-29T21:34:19.375Z,59.36
2022-11-29T21:36:54.136Z,61.14
2022-11-29T21:39:24.856Z,60.71
2022-11-29T21:41:51.704Z,61.06
2022-11-29T21:44:18.570Z,60.35
2022-11-29T21:46:45.507Z,60.02
2022-11-29T21:49:12.364Z,59.33
2022-11-29T21:51:39.234Z,59.87
2022-11-29T21:54:06.107Z,60.58
2022-11-29T21:56:33.028Z,59.84
2022-11-29T21:58:59.851Z,59.72
2022-11-29T22:01:26.725Z,60.05
2022-11-29T22:03:54.426Z,59.45
2022-11-29T22:06:22.000Z,59.81
2022-11-29T22:08:48.975Z,60.10
2022-11-29T22:11:18.500Z,59.54
2022-11-29T22:13:45.403Z,58.85
2022-11-29T22:16:12.355Z,59.46
2022-11-29T22:18:39.220Z,59.41
2022-11-29T22:21:07.196Z,58.87
2022-11-29T22:23:34.540Z,58.99
2022-11-29T22:26:03.512Z,58.33
2022-11-29T22:28:30.373Z,59.11
2022-11-29T22:31:15.231Z,59.23
2022-11-29T22:33:42.262Z,58.90
2022-11-29T22:36:11.564Z,59.02
2022-11-29T22:38:39.874Z,58.27
2022-11-29T22:41:09.537Z,58.17
2022-11-29T22:43:37.530Z,58.72
2022-11-29T22:46:10.552Z,58.53
2022-11-29T22:48:39.265Z,58.85
2022-11-29T22:51:11.928Z,58.83
2022-11-29T22:53:40.750Z,58.59
2022-11-29T22:56:10.296Z,59.59
2022-11-29T22:58:37.794Z,59.41
2022-11-29T23:01:11.293Z,60.25
2022-11-29T23:03:42.073Z,60.74
2022-11-29T23:06:10.580Z,60.81
2022-11-29T23:08:38.618Z,61.17
2022-11-29T23:11:07.402Z,60.37
2022-11-29T23:13:36.630Z,60.62
2022-11-29T23:16:05.600Z,60.30
2022-11-29T23:18:32.885Z,60.28
2022-11-29T23:21:04.815Z,59.77
2022-11-29T23:23:31.737Z,59.84
2022-11-29T23:25:59.238Z,59.69
2022-11-29T23:28:26.773Z,59.28
2022-11-29T23:30:53.870Z,59.80
2022-11-29T23:33:22.699Z,60.83
2022-11-29T23:35:50.782Z,60.54
2022-11-29T23:38:18.142Z,60.03
2022-11-29T23:40:45.090Z,59.59
2022-11-29T23:43:13.765Z,60.21
2022-11-29T23:45:40.822Z,60.81
2022-11-29T23:48:08.025Z,60.16
2022-11-29T23:50:34.926Z,60.64
2022-11-29T23:53:01.791Z,60.95
2022-11-29T23:55:28.981Z,60.25
2022-11-29T23:57:55.927Z,61.01
